Time;durP1;ratioP1;P1;durP2;ratioP2;P2;SDS_P1;SDS_P2;PMS_P1;PMS_P2;Temp;Humidity;BMP_temperature;BMP_pressure;BME280_temperature;BME280_humidity;BME280_pressure;Samples;Min_cycle;Max_cycle;Signal;HPM_P1;HPM_P2
2022/12/03 00:00:20;;;;;;;2.17;2.07;;;;;;;10.18;56.90;95819.63;4951776;28;20458;-64
2022/12/03 00:02:47;;;;;;;11.47;2.63;;;;;;;10.02;57.28;95817.63;4951055;28;20487;-65
2022/12/03 00:05:14;;;;;;;12.53;2.03;;;;;;;9.65;58.36;95816.28;4951345;28;20444;-65
2022/12/03 00:07:41;;;;;;;5.00;2.07;;;;;;;9.59;58.54;95822.44;4951480;28;20543;-64
2022/12/03 00:10:08;;;;;;;1.03;1.03;;;;;;;9.46;58.35;95828.66;4951462;28;20523;-63
2022/12/03 00:12:35;;;;;;;4.37;2.73;;;;;;;9.78;57.88;95832.56;4950988;28;20467;-63
2022/12/03 00:15:03;;;;;;;6.30;3.13;;;;;;;9.79;57.34;95833.38;4945315;28;20499;-63
2022/12/03 00:17:31;;;;;;;5.97;1.07;;;;;;;9.57;57.89;95829.69;4946928;29;20475;-62
2022/12/03 00:19:58;;;;;;;0.45;0.45;;;;;;;9.76;57.29;95833.81;4940982;28;20447;-62
2022/12/03 00:22:24;;;;;;;2.58;0.63;;;;;;;9.62;57.42;95835.84;4955009;28;20224;-64
2022/12/03 00:24:51;;;;;;;1.10;0.77;;;;;;;9.38;58.35;95843.91;4954514;28;20912;-63
2022/12/03 00:27:19;;;;;;;0.68;0.65;;;;;;;9.31;59.19;95843.19;4946043;28;20205;-64
2022/12/03 00:29:46;;;;;;;0.00;0.00;;;;;;;9.09;59.22;95848.94;4935240;29;20205;-64
2022/12/03 00:32:13;;;;;;;6.03;2.20;;;;;;;9.13;59.44;95844.88;4935921;29;20196;-62
2022/12/03 00:34:39;;;;;;;0.43;0.43;;;;;;;9.17;59.53;95848.63;4947644;29;20576;-63
2022/12/03 00:37:06;;;;;;;0.38;0.38;;;;;;;9.50;58.17;95845.53;4949549;28;20224;-63
2022/12/03 00:39:33;;;;;;;0.00;0.00;;;;;;;9.26;58.53;95856.13;4935268;29;20197;-63
2022/12/03 00:42:00;;;;;;;4.03;0.95;;;;;;;8.95;59.83;95863.22;4935037;29;20283;-64
2022/12/03 00:44:27;;;;;;;2.90;1.55;;;;;;;9.26;59.00;95858.75;4944696;29;20195;-63
2022/12/03 00:46:54;;;;;;;0.60;0.60;;;;;;;9.21;58.53;95859.44;4952467;28;20277;-63
2022/12/03 00:49:20;;;;;;;0.70;0.57;;;;;;;9.27;58.99;95850.69;4942585;28;20214;-63
2022/12/03 00:51:47;;;;;;;2.33;1.85;;;;;;;8.98;59.66;95857.53;4944174;28;20200;-63
2022/12/03 00:54:14;;;;;;;0.82;0.82;;;;;;;8.93;59.67;95864.44;4948489;29;20200;-63
2022/12/03 00:56:41;;;;;;;0.10;0.10;;;;;;;8.86;60.02;95871.56;4943353;29;20212;-63
2022/12/03 00:59:08;;;;;;;0.20;0.20;;;;;;;9.11;59.02;95874.84;4954117;28;20200;-63
2022/12/03 01:01:35;;;;;;;0.10;0.10;;;;;;;9.02;59.00;95874.38;4954250;28;20255;-63
2022/12/03 01:04:01;;;;;;;0.00;0.00;;;;;;;8.97;59.01;95879.47;4953745;28;20541;-62
2022/12/03 01:06:28;;;;;;;0.40;0.40;;;;;;;8.61;60.31;95876.88;4948556;28;20707;-64
2022/12/03 01:08:55;;;;;;;0.47;0.47;;;;;;;8.93;59.74;95886.16;4934545;29;20307;-63
2022/12/03 01:11:37;;;;;;;0.22;0.20;;;;;;;9.01;59.34;95883.22;4934593;29;20295;-62
2022/12/03 01:14:05;;;;;;;0.08;0.08;;;;;;;8.92;59.03;95883.78;4934213;29;20200;-64
2022/12/03 01:16:32;;;;;;;0.65;0.52;;;;;;;9.17;58.35;95887.03;4933675;29;20284;-64
2022/12/03 01:18:59;;;;;;;1.10;0.95;;;;;;;9.28;58.00;95880.25;4947277;28;20229;-64
2022/12/03 01:21:26;;;;;;;0.10;0.10;;;;;;;9.05;58.28;95883.59;4945759;28;20194;-64
2022/12/03 01:23:54;;;;;;;1.90;0.85;;;;;;;8.67;59.85;95886.47;4953173;28;20210;-64
2022/12/03 01:26:20;;;;;;;1.10;0.63;;;;;;;8.37;60.26;95890.84;4943081;28;20664;-64
2022/12/03 01:28:47;;;;;;;0.20;0.20;;;;;;;8.52;60.07;95893.09;4933077;29;20711;-63
2022/12/03 01:34:00;;;;;;;0.90;0.32;;;;;;;8.82;58.90;95894.75;4953499;28;20671;-65
2022/12/03 01:36:27;;;;;;;0.68;0.68;;;;;;;9.31;58.36;95895.50;4953224;28;20806;-63
2022/12/03 01:38:53;;;;;;;0.10;0.05;;;;;;;8.81;58.84;95902.81;4953278;29;20235;-64
2022/12/03 01:41:22;;;;;;;0.50;0.40;;;;;;;8.88;59.34;95899.09;4941798;28;20229;-63
2022/12/03 01:43:50;;;;;;;0.00;0.00;;;;;;;8.83;58.89;95896.31;4938152;29;20219;-63
2022/12/03 01:46:22;;;;;;;0.13;0.13;;;;;;;8.72;59.23;95897.06;4942801;28;20334;-62
2022/12/03 01:48:52;;;;;;;0.00;0.00;;;;;;;8.83;59.47;95883.25;4950727;29;20204;-63
2022/12/03 01:51:19;;;;;;;2.15;1.95;;;;;;;8.46;60.50;95889.53;4943153;28;20260;-63
2022/12/03 01:53:46;;;;;;;0.38;0.38;;;;;;;8.42;60.38;95896.22;4945981;28;20204;-62
2022/12/03 01:56:15;;;;;;;0.28;0.28;;;;;;;8.23;61.39;95895.34;4934550;28;20580;-64
2022/12/03 01:58:44;;;;;;;1.42;0.22;;;;;;;8.42;60.30;95893.59;4944487;29;20268;-64
2022/12/03 02:01:16;;;;;;;0.50;0.50;;;;;;;8.38;60.12;95892.44;4948897;28;20200;-63
2022/12/03 02:03:45;;;;;;;0.00;0.00;;;;;;;8.52;60.48;95893.88;4933749;29;20244;-64
2022/12/03 02:06:20;;;;;;;0.43;0.43;;;;;;;8.44;60.15;95890.75;4936305;29;20192;-63
2022/12/03 02:08:47;;;;;;;0.00;0.00;;;;;;;8.63;59.98;95879.31;4942781;28;20192;-64
2022/12/03 02:11:23;;;;;;;0.20;0.20;;;;;;;8.96;59.42;95882.28;4946920;29;20223;-65
2022/12/03 02:13:54;;;;;;;0.15;0.15;;;;;;;8.91;59.00;95888.19;4933630;29;20219;-63
2022/12/03 02:16:22;;;;;;;0.00;0.00;;;;;;;8.82;59.62;95889.50;4946917;28;20219;-64
2022/12/03 02:18:49;;;;;;;0.30;0.30;;;;;;;8.56;59.90;95881.97;4933724;29;20240;-63
2022/12/03 02:21:28;;;;;;;0.00;0.00;;;;;;;8.70;59.50;95880.03;4938907;28;20679;-64
2022/12/03 02:24:06;;;;;;;0.32;0.10;;;;;;;8.11;60.98;95891.06;4933855;28;20208;-62
2022/12/03 02:26:33;;;;;;;0.63;0.63;;;;;;;8.43;60.56;95900.41;4933269;29;20649;-62
2022/12/03 02:29:01;;;;;;;4.55;2.08;;;;;;;8.38;60.72;95892.44;4933642;28;20240;-63
2022/12/03 02:31:28;;;;;;;0.00;0.00;;;;;;;8.43;60.76;95887.34;4946676;29;20197;-62
2022/12/03 02:33:55;;;;;;;0.10;0.10;;;;;;;8.42;60.37;95862.25;4939920;29;20196;-63
2022/12/03 02:36:23;;;;;;;0.70;0.70;;;;;;;8.68;59.36;95885.47;4952337;28;20335;-65
2022/12/03 02:38:50;;;;;;;0.20;0.20;;;;;;;8.51;60.02;95886.25;4938456;28;20314;-63
2022/12/03 02:44:07;;;;;;;0.38;0.38;;;;;;;8.93;59.29;95880.94;4932839;29;20200;-63
2022/12/03 02:46:34;;;;;;;0.88;0.82;;;;;;;9.00;58.52;95881.63;4945578;29;20215;-63
2022/12/03 02:49:04;;;;;;;0.13;0.13;;;;;;;8.75;59.22;95880.97;4952703;28;20204;-64
2022/12/03 02:51:33;;;;;;;0.75;0.73;;;;;;;8.88;59.32;95880.81;4947353;28;20195;-63
2022/12/03 02:54:00;;;;;;;0.08;0.08;;;;;;;9.13;58.83;95886.69;4951779;28;20290;-64
2022/12/03 02:56:30;;;;;;;0.20;0.20;;;;;;;8.77;59.37;95876.31;4933081;29;20257;-62
2022/12/03 02:59:00;;;;;;;0.90;0.88;;;;;;;8.72;60.11;95878.75;4945243;28;20857;-63
2022/12/03 03:01:28;;;;;;;0.20;0.20;;;;;;;8.77;59.48;95871.09;4938678;29;20202;-65
2022/12/03 03:03:56;;;;;;;0.22;0.22;;;;;;;9.11;58.91;95880.88;4951943;28;20192;-63
2022/12/03 03:06:23;;;;;;;1.25;0.17;;;;;;;9.23;58.15;95870.47;4933681;28;20210;-63
2022/12/03 03:08:50;;;;;;;0.10;0.10;;;;;;;8.86;58.48;95884.63;4943245;29;20619;-61
2022/12/03 03:11:17;;;;;;;4.30;0.68;;;;;;;8.84;59.73;95882.25;4935179;28;20209;-65
2022/12/03 03:13:44;;;;;;;1.38;0.35;;;;;;;8.69;59.53;95878.41;4932603;29;20280;-64
2022/12/03 03:16:11;;;;;;;0.30;0.28;;;;;;;8.86;59.47;95882.84;4947363;29;20214;-65
2022/12/03 03:18:39;;;;;;;0.70;0.70;;;;;;;9.07;58.97;95882.34;4944264;28;20941;-64
2022/12/03 03:21:06;;;;;;;0.80;0.80;;;;;;;8.82;59.10;95884.28;4945667;28;20299;-62
2022/12/03 03:23:33;;;;;;;0.20;0.20;;;;;;;8.52;59.73;95882.66;4951828;28;20211;-65
2022/12/03 03:26:12;;;;;;;0.10;0.10;;;;;;;8.99;58.84;95874.81;4939917;28;20575;-64
2022/12/03 03:28:44;;;;;;;0.10;0.10;;;;;;;9.05;59.00;95876.53;4932188;29;20208;-62
2022/12/03 03:31:13;;;;;;;0.00;0.00;;;;;;;8.72;59.39;95873.53;4945127;29;20207;-63
2022/12/03 03:33:43;;;;;;;0.00;0.00;;;;;;;8.73;59.55;95859.47;4933179;28;20188;-66
2022/12/03 03:36:11;;;;;;;0.00;0.00;;;;;;;8.87;59.36;95867.94;4932532;29;20222;-67
2022/12/03 03:38:40;;;;;;;0.10;0.10;;;;;;;9.14;58.08;95867.34;4945752;28;20236;-66
2022/12/03 03:41:09;;;;;;;0.03;0.03;;;;;;;9.26;57.79;95869.22;4932017;29;20665;-68
2022/12/03 03:43:37;;;;;;;0.55;0.55;;;;;;;8.69;59.07;95879.22;4942495;29;20640;-64
2022/12/03 03:46:06;;;;;;;0.00;0.00;;;;;;;8.93;58.93;95880.94;4938168;28;21367;-65
2022/12/03 03:48:34;;;;;;;0.00;0.00;;;;;;;8.98;58.02;95877.63;4951471;28;20230;-64
2022/12/03 03:51:07;;;;;;;0.10;0.10;;;;;;;8.80;58.93;95883.72;4948212;28;20196;-64
2022/12/03 03:53:37;;;;;;;0.00;0.00;;;;;;;8.60;59.76;95892.78;4947031;29;20295;-64
2022/12/03 03:56:05;;;;;;;0.20;0.20;;;;;;;8.49;59.56;95894.31;4941885;28;20207;-65
2022/12/03 03:58:32;;;;;;;0.00;0.00;;;;;;;8.51;60.02;95897.50;4946129;28;20283;-66
2022/12/03 04:01:00;;;;;;;0.40;0.40;;;;;;;8.26;59.56;95890.75;4949378;29;20273;-62
2022/12/03 04:03:28;;;;;;;0.10;0.10;;;;;;;8.18;60.03;95891.78;4944275;29;20207;-65
2022/12/03 04:05:54;;;;;;;0.68;0.25;;;;;;;8.62;59.00;95888.94;4954403;28;20212;-65
2022/12/03 04:08:21;;;;;;;0.30;0.30;;;;;;;8.56;59.15;95895.03;4942441;28;20204;-65
2022/12/03 04:13:33;;;;;;;0.57;0.57;;;;;;;8.51;59.19;95892.28;4935867;29;20184;-63
2022/12/03 04:16:00;;;;;;;0.40;0.40;;;;;;;8.61;59.15;95903.00;4935835;28;20291;-63
2022/12/03 04:18:42;;;;;;;0.10;0.10;;;;;;;8.55;59.23;95903.09;4941560;28;20319;-65
2022/12/03 04:24:06;;;;;;;0.08;0.08;;;;;;;8.81;58.36;95908.81;4935649;29;20228;-65
2022/12/03 04:29:19;;;;;;;1.45;0.95;;;;;;;8.10;59.48;95916.38;4946507;28;20237;-65
2022/12/03 04:37:19;;;;;;;0.00;0.00;;;;;;;8.44;59.80;95917.69;4942086;28;20270;-66
2022/12/03 04:39:46;;;;;;;0.10;0.10;;;;;;;8.29;60.44;95925.06;4954610;28;20239;-63
2022/12/03 04:42:12;;;;;;;0.70;0.70;;;;;;;8.29;59.82;95924.25;4940671;28;20234;-64
2022/12/03 04:44:39;;;;;;;0.10;0.10;;;;;;;8.37;59.55;95932.63;4943467;28;20185;-66
2022/12/03 04:47:13;;;;;;;2.00;1.83;;;;;;;8.47;59.27;95926.88;4935168;29;20235;-63
2022/12/03 04:49:42;;;;;;;0.13;0.13;;;;;;;8.72;59.00;95925.03;4948443;29;20260;-64
2022/12/03 04:52:11;;;;;;;0.00;0.00;;;;;;;8.53;59.38;95913.78;4935528;28;20229;-65
2022/12/03 04:54:39;;;;;;;0.38;0.15;;;;;;;8.53;59.04;95929.44;4953775;29;20204;-67
2022/12/03 04:57:07;;;;;;;0.32;0.28;;;;;;;8.82;58.67;95925.28;4954309;28;20242;-67
2022/12/03 04:59:34;;;;;;;1.20;1.13;;;;;;;8.73;58.84;95916.97;4940630;28;20306;-66
2022/12/03 05:02:02;;;;;;;0.17;0.17;;;;;;;8.58;59.04;95919.13;4943924;28;20268;-65
2022/12/03 05:04:31;;;;;;;0.30;0.30;;;;;;;8.63;59.00;95919.28;4951087;29;20196;-65
2022/12/03 05:06:58;;;;;;;0.00;0.00;;;;;;;8.68;58.72;95922.06;4945295;28;20213;-66
2022/12/03 05:09:25;;;;;;;0.05;0.05;;;;;;;8.75;58.42;95904.47;4948234;29;20296;-66
2022/12/03 05:11:52;;;;;;;1.15;0.98;;;;;;;8.91;58.31;95922.16;4939743;29;20214;-64
2022/12/03 05:14:19;;;;;;;3.13;1.50;;;;;;;9.06;57.84;95917.38;4941553;28;20204;-63
2022/12/03 05:16:46;;;;;;;0.00;0.00;;;;;;;8.92;57.92;95918.53;4946113;29;20258;-63
2022/12/03 05:19:13;;;;;;;0.73;0.73;;;;;;;9.15;57.57;95921.28;4942317;28;20228;-63
2022/12/03 05:21:39;;;;;;;0.10;0.10;;;;;;;9.04;57.89;95929.84;4937039;28;20669;-63
2022/12/03 05:24:06;;;;;;;0.20;0.20;;;;;;;9.16;57.60;95928.06;4943475;29;20830;-64
2022/12/03 05:26:33;;;;;;;0.17;0.10;;;;;;;9.02;57.78;95926.66;4951884;28;20204;-65
2022/12/03 05:29:00;;;;;;;0.10;0.10;;;;;;;9.14;57.54;95937.97;4954450;28;20196;-64
2022/12/03 05:31:27;;;;;;;0.00;0.00;;;;;;;9.13;57.67;95925.91;4951863;28;20672;-63
2022/12/03 05:33:54;;;;;;;0.00;0.00;;;;;;;9.20;57.35;95928.44;4940653;29;20199;-64
2022/12/03 05:36:21;;;;;;;0.22;0.22;;;;;;;9.26;57.59;95926.75;4952249;28;21808;-64
2022/12/03 05:38:48;;;;;;;0.73;0.73;;;;;;;9.28;56.81;95930.75;4947691;28;20315;-64
2022/12/03 05:44:01;;;;;;;0.30;0.20;;;;;;;9.18;56.55;95941.72;4939680;29;20758;-64
2022/12/03 05:46:28;;;;;;;0.03;0.03;;;;;;;9.14;57.00;95943.19;4952874;28;20654;-64
2022/12/03 05:48:55;;;;;;;0.30;0.30;;;;;;;9.25;56.81;95936.44;4939261;28;20200;-64
2022/12/03 05:51:22;;;;;;;0.35;0.35;;;;;;;9.41;56.17;95946.28;4951970;28;20196;-65
2022/12/03 05:53:49;;;;;;;0.00;0.00;;;;;;;9.27;56.89;95944.81;4951468;28;20214;-67
2022/12/03 05:56:16;;;;;;;0.65;0.52;;;;;;;9.54;56.01;95945.28;4952792;28;20275;-66
2022/12/03 05:58:43;;;;;;;0.98;0.80;;;;;;;9.52;56.32;95942.91;4942115;28;20228;-67
2022/12/03 06:01:10;;;;;;;0.38;0.38;;;;;;;9.02;57.20;95947.56;4947482;29;20208;-66
2022/12/03 06:03:36;;;;;;;0.10;0.10;;;;;;;9.18;56.66;95951.38;4942938;28;20707;-68
2022/12/03 06:06:04;;;;;;;0.05;0.05;;;;;;;9.03;57.52;95959.63;4952787;29;20279;-68
2022/12/03 06:08:31;;;;;;;0.25;0.25;;;;;;;8.75;58.03;95954.13;4945159;28;20211;-68
2022/12/03 06:10:57;;;;;;;1.23;0.68;;;;;;;8.61;58.50;95970.94;4947238;29;20203;-64
2022/12/03 06:13:24;;;;;;;2.38;2.25;;;;;;;9.11;57.48;95967.16;4945266;28;20675;-64
2022/12/03 06:15:51;;;;;;;0.10;0.10;;;;;;;9.13;57.51;95961.72;4932046;29;20204;-66
2022/12/03 06:18:18;;;;;;;0.68;0.68;;;;;;;8.96;57.82;95969.34;4931983;29;20319;-65
2022/12/03 06:20:45;;;;;;;0.57;0.57;;;;;;;9.11;57.43;95968.97;4932363;28;20628;-63
2022/12/03 06:23:12;;;;;;;0.22;0.22;;;;;;;8.80;58.03;95975.16;4931716;29;20672;-63
2022/12/03 06:25:38;;;;;;;0.00;0.00;;;;;;;8.93;57.64;95975.03;4931877;29;20192;-67
2022/12/03 06:28:06;;;;;;;0.00;0.00;;;;;;;9.20;57.26;95976.31;4932198;29;20304;-67
2022/12/03 06:30:34;;;;;;;0.00;0.00;;;;;;;9.17;57.20;95971.53;4932006;29;20657;-67
2022/12/03 06:33:01;;;;;;;0.25;0.25;;;;;;;9.16;56.86;95966.50;4931716;29;20204;-64
2022/12/03 06:35:28;;;;;;;0.68;0.68;;;;;;;9.17;56.44;95984.59;4931772;29;20201;-68
2022/12/03 06:37:55;;;;;;;0.00;0.00;;;;;;;8.98;56.98;95983.00;4931564;29;20627;-68
2022/12/03 06:40:23;;;;;;;0.10;0.10;;;;;;;8.78;57.80;95982.44;4931796;29;20299;-65
2022/12/03 06:42:50;;;;;;;0.00;0.00;;;;;;;9.06;57.25;95980.09;4933014;28;20224;-64
2022/12/03 06:45:17;;;;;;;0.00;0.00;;;;;;;9.01;56.88;95977.34;4934496;29;20224;-67
2022/12/03 06:47:44;;;;;;;0.22;0.22;;;;;;;8.77;57.35;95988.69;4931672;29;20319;-67
2022/12/03 06:50:12;;;;;;;0.00;0.00;;;;;;;8.84;57.58;95976.34;4931517;29;20201;-66
2022/12/03 06:52:39;;;;;;;0.20;0.20;;;;;;;9.29;57.01;95973.41;4932020;29;20212;-63
2022/12/03 06:55:07;;;;;;;0.38;0.38;;;;;;;9.21;56.56;95977.13;4932009;29;20204;-66
2022/12/03 06:57:34;;;;;;;0.88;0.63;;;;;;;8.81;57.37;95966.31;4931240;29;20832;-63
2022/12/03 07:00:04;;;;;;;1.27;1.17;;;;;;;9.03;57.44;95974.53;4931258;29;20962;-66
2022/12/03 07:02:31;;;;;;;0.82;0.57;;;;;;;8.73;57.57;95977.06;4931646;29;20220;-65
2022/12/03 07:04:57;;;;;;;0.00;0.00;;;;;;;9.11;57.14;95977.63;4931187;29;20255;-63
2022/12/03 07:07:24;;;;;;;0.10;0.10;;;;;;;9.43;55.92;95970.41;4931149;29;20204;-63
2022/12/03 07:09:51;;;;;;;0.00;0.00;;;;;;;9.44;56.07;95965.94;4930388;29;20222;-65
2022/12/03 07:12:19;;;;;;;0.00;0.00;;;;;;;9.14;56.56;95982.41;4930705;28;20947;-63
2022/12/03 07:14:46;;;;;;;0.77;0.45;;;;;;;9.37;56.50;95986.97;4930892;29;20213;-68
2022/12/03 07:17:13;;;;;;;0.10;0.10;;;;;;;9.37;56.50;95986.97;4930658;29;20196;-65
2022/12/03 07:19:40;;;;;;;0.00;0.00;;;;;;;9.54;56.39;95987.16;4931237;29;20236;-64
2022/12/03 07:22:07;;;;;;;0.90;0.90;;;;;;;9.35;56.49;95989.00;4931068;28;20208;-65
2022/12/03 07:24:34;;;;;;;0.30;0.28;;;;;;;9.44;56.59;95997.34;4931020;29;20291;-67
2022/12/03 07:27:01;;;;;;;0.00;0.00;;;;;;;9.38;57.20;95990.38;4931287;29;20609;-65
2022/12/03 07:29:28;;;;;;;1.90;1.20;;;;;;;9.67;56.05;95990.38;4930753;28;20196;-69
2022/12/03 07:31:55;;;;;;;0.13;0.13;;;;;;;9.72;56.21;95987.09;4930766;29;20207;-65
2022/12/03 07:34:22;;;;;;;0.00;0.00;;;;;;;9.55;56.67;95967.81;4930733;29;20204;-65
2022/12/03 07:36:48;;;;;;;0.45;0.45;;;;;;;9.67;56.32;95992.97;4939595;29;20463;-66
2022/12/03 07:39:15;;;;;;;0.40;0.40;;;;;;;9.41;56.81;95995.16;4943994;28;20251;-64
2022/12/03 07:41:42;;;;;;;0.30;0.30;;;;;;;9.43;57.80;96000.97;4930926;29;20200;-65
2022/12/03 07:44:09;;;;;;;0.00;0.00;;;;;;;8.94;58.16;95981.84;4930740;28;20316;-68
2022/12/03 07:46:41;;;;;;;0.10;0.10;;;;;;;9.17;58.10;95992.44;4930919;29;20283;-66
2022/12/03 07:49:07;;;;;;;0.55;0.55;;;;;;;9.10;57.95;95991.69;4930881;29;20456;-64
2022/12/03 07:51:35;;;;;;;0.00;0.00;;;;;;;9.45;58.34;96006.78;4930863;29;20296;-67
2022/12/03 07:54:01;;;;;;;0.30;0.30;;;;;;;9.46;57.40;95990.06;4930630;29;20648;-66
2022/12/03 07:56:28;;;;;;;0.00;0.00;;;;;;;9.25;56.70;95993.97;4930679;29;20196;-63
2022/12/03 07:58:55;;;;;;;0.20;0.08;;;;;;;9.44;57.00;96002.56;4931056;29;20244;-66
2022/12/03 08:01:22;;;;;;;0.40;0.40;;;;;;;9.17;57.29;96008.13;4931196;29;20604;-68
2022/12/03 08:03:50;;;;;;;0.10;0.10;;;;;;;9.38;57.03;96003.47;4930743;29;20327;-66
2022/12/03 08:06:16;;;;;;;0.40;0.40;;;;;;;8.78;59.12;96005.94;4930397;29;20196;-65
2022/12/03 08:08:43;;;;;;;0.82;0.70;;;;;;;8.90;59.21;96001.63;4931704;29;20239;-66
2022/12/03 08:11:14;;;;;;;1.27;0.50;;;;;;;8.92;57.55;96015.25;4945401;29;20291;-65
2022/12/03 08:13:41;;;;;;;1.65;0.45;;;;;;;9.23;57.58;96010.88;4943358;29;20302;-69
2022/12/03 08:16:14;;;;;;;19.30;2.75;;;;;;;9.12;57.31;96015.81;4937866;28;20263;-65
2022/12/03 08:18:41;;;;;;;1.10;1.10;;;;;;;9.18;56.96;96004.50;4940393;28;20212;-63
2022/12/03 08:21:14;;;;;;;0.52;0.52;;;;;;;9.34;56.65;96012.75;4945156;28;20192;-68
2022/12/03 08:23:41;;;;;;;0.63;0.63;;;;;;;9.32;57.06;96007.75;4931871;29;20231;-67
2022/12/03 08:26:23;;;;;;;0.08;0.08;;;;;;;9.52;56.04;96017.97;4947393;28;20200;-65
2022/12/03 08:28:52;;;;;;;1.20;1.10;;;;;;;8.66;58.70;96036.44;4940884;28;20201;-64
2022/12/03 08:31:24;;;;;;;1.23;1.13;;;;;;;9.48;56.80;96022.03;4945409;28;20284;-63
2022/12/03 08:34:21;;;;;;;0.55;0.55;;;;;;;9.72;56.05;96027.16;4932174;29;20201;-68
2022/12/03 08:36:54;;;;;;;0.00;0.00;;;;;;;9.58;55.97;96019.72;4945414;28;20594;-65
2022/12/03 08:39:32;;;;;;;2.45;1.85;;;;;;;9.94;55.30;96024.84;4935096;29;20591;-65
2022/12/03 08:45:27;;;;;;;0.40;0.25;;;;;;;9.77;55.44;96031.72;4949307;29;20290;-67
2022/12/03 08:47:58;;;;;;;0.17;0.17;;;;;;;9.88;55.42;96031.75;4954633;28;20322;-69
2022/12/03 08:50:48;;;;;;;0.28;0.28;;;;;;;9.48;56.17;96035.13;4941082;29;21223;-65
2022/12/03 08:53:28;;;;;;;0.10;0.10;;;;;;;9.55;55.98;96027.97;4941784;29;20354;-69
2022/12/03 08:56:17;;;;;;;0.30;0.30;;;;;;;9.88;55.87;96036.19;4949046;28;20237;-67
2022/12/03 08:58:46;;;;;;;0.30;0.30;;;;;;;10.39;54.40;96023.34;4946166;28;20227;-69
2022/12/03 09:01:28;;;;;;;0.10;0.10;;;;;;;10.52;53.87;96027.56;4940567;28;20529;-72
2022/12/03 09:04:04;;;;;;;2.47;1.95;;;;;;;9.90;54.89;96026.31;4942586;28;20213;-66
2022/12/03 09:06:31;;;;;;;4.03;2.58;;;;;;;9.98;55.18;96020.75;4948285;29;20203;-63
2022/12/03 09:08:57;;;;;;;0.00;0.00;;;;;;;10.68;53.63;96022.47;4946363;28;20651;-66
2022/12/03 09:11:32;;;;;;;0.30;0.23;;;;;;;10.31;54.53;96021.06;4952875;29;20202;-66
2022/12/03 09:13:58;;;;;;;1.30;0.73;;;;;;;10.79;52.98;96019.03;4954410;28;20502;-68
2022/12/03 09:16:26;;;;;;;1.03;0.30;;;;;;;10.68;53.06;96021.66;4940862;28;20455;-66
2022/12/03 09:18:53;;;;;;;0.13;0.13;;;;;;;10.33;53.30;96019.00;4945457;28;20618;-64
2022/12/03 09:21:20;;;;;;;0.00;0.00;;;;;;;10.00;54.33;96023.91;4935936;29;20458;-65
2022/12/03 09:23:47;;;;;;;0.00;0.00;;;;;;;10.23;54.27;96024.03;4954199;28;20963;-68
2022/12/03 09:26:14;;;;;;;1.00;0.90;;;;;;;10.60;53.79;96024.63;4940229;28;20905;-63
2022/12/03 09:28:41;;;;;;;2.07;1.97;;;;;;;10.22;55.26;96022.41;4934202;29;21239;-64
2022/12/03 09:31:08;;;;;;;1.70;1.53;;;;;;;10.80;53.77;96014.59;4946420;29;20986;-67
2022/12/03 09:33:35;;;;;;;0.20;0.20;;;;;;;10.57;54.16;96020.63;4940206;28;20491;-67
2022/12/03 09:36:02;;;;;;;0.40;0.17;;;;;;;9.67;55.57;96023.63;4943971;28;20445;-68
2022/12/03 09:38:29;;;;;;;0.57;0.57;;;;;;;10.55;54.04;96012.19;4948017;29;20507;-69
2022/12/03 09:40:58;;;;;;;0.00;0.00;;;;;;;10.76;54.18;96011.63;4934286;29;20527;-67
2022/12/03 09:43:29;;;;;;;0.00;0.00;;;;;;;10.42;54.10;96022.91;4948253;29;20447;-66
2022/12/03 09:46:17;;;;;;;0.33;0.33;;;;;;;10.95;53.42;96007.84;4941848;28;20535;-63
2022/12/03 09:48:45;;;;;;;0.10;0.10;;;;;;;11.07;52.91;96006.03;4949136;28;20487;-64
2022/12/03 09:51:12;;;;;;;0.07;0.07;;;;;;;11.08;52.75;96004.97;4944198;28;20899;-65
2022/12/03 09:53:39;;;;;;;0.33;0.33;;;;;;;11.09;53.33;95997.91;4934179;29;20460;-64
2022/12/03 09:56:17;;;;;;;0.73;0.63;;;;;;;11.08;52.80;95997.09;4933825;29;20492;-69
2022/12/03 09:58:44;;;;;;;0.53;0.30;;;;;;;11.11;52.53;95998.47;4944479;28;20451;-67
2022/12/03 10:01:14;;;;;;;0.00;0.00;;;;;;;11.15;52.65;95994.34;4949406;28;20472;-64
2022/12/03 10:03:48;;;;;;;0.73;0.73;;;;;;;11.10;53.03;95999.50;4933864;29;20983;-66
2022/12/03 10:06:19;;;;;;;0.10;0.10;;;;;;;11.24;52.23;95991.13;4946490;29;20448;-68
2022/12/03 10:08:50;;;;;;;0.10;0.10;;;;;;;11.36;52.12;95982.44;4943599;29;20510;-68
2022/12/03 10:11:20;;;;;;;0.37;0.37;;;;;;;11.13;52.68;95981.47;4949608;28;21022;-64
2022/12/03 10:13:48;;;;;;;0.10;0.10;;;;;;;11.29;52.21;95992.28;4942716;29;20503;-70
2022/12/03 10:16:19;;;;;;;0.57;0.57;;;;;;;11.16;52.50;95983.66;4950866;28;20447;-70
2022/12/03 10:18:53;;;;;;;0.10;0.10;;;;;;;11.05;52.89;95981.84;4934016;29;20440;-67
2022/12/03 10:21:30;;;;;;;0.00;0.00;;;;;;;11.25;52.66;95978.81;4933134;29;20487;-62
2022/12/03 10:24:43;;;;;;;0.10;0.10;;;;;;;10.93;52.87;95973.19;4942620;29;20439;-66
2022/12/03 10:27:29;;;;;;;0.00;0.00;;;;;;;10.75;53.72;95970.69;4933321;29;20781;-67
2022/12/03 10:30:01;;;;;;;0.00;0.00;;;;;;;10.90;53.36;95968.41;4949073;29;20473;-65
2022/12/03 10:32:49;;;;;;;0.53;0.43;;;;;;;10.40;54.05;95971.75;4943965;28;21337;-65
2022/12/03 10:35:19;;;;;;;0.23;0.23;;;;;;;10.73;54.69;95966.75;4950007;29;20851;-66
2022/12/03 10:38:03;;;;;;;0.57;0.47;;;;;;;10.71;54.18;95968.78;4942107;28;20880;-66
2022/12/03 10:40:36;;;;;;;0.00;0.00;;;;;;;10.41;54.43;95974.16;4933388;29;20475;-64
2022/12/03 10:43:17;;;;;;;4.43;2.40;;;;;;;10.73;54.22;95967.50;4933238;29;20482;-66
2022/12/03 10:46:00;;;;;;;0.30;0.30;;;;;;;10.87;54.24;95979.38;4946083;28;20460;-67
2022/12/03 10:48:30;;;;;;;0.93;0.93;;;;;;;10.95;54.47;95970.31;4932546;29;20476;-66
2022/12/03 10:51:17;;;;;;;2.43;1.13;;;;;;;10.90;54.31;95967.59;4936630;29;20448;-67
2022/12/03 10:53:44;;;;;;;0.30;0.30;;;;;;;10.80;53.55;95957.69;4933008;29;20448;-66
2022/12/03 10:56:23;;;;;;;0.80;0.80;;;;;;;10.91;53.46;95970.00;4950698;28;20522;-67
2022/12/03 10:58:50;;;;;;;1.30;0.40;;;;;;;11.02;52.81;95966.56;4953488;28;20447;-64
2022/12/03 11:01:24;;;;;;;0.60;0.60;;;;;;;10.68;53.82;95959.53;4937359;28;20487;-64
2022/12/03 11:03:52;;;;;;;0.97;0.87;;;;;;;10.82;53.13;95958.25;4944011;29;20454;-69
2022/12/03 11:06:21;;;;;;;0.10;0.10;;;;;;;10.70;53.15;95957.50;4934132;28;20999;-66
2022/12/03 11:08:51;;;;;;;0.20;0.20;;;;;;;10.37;54.00;95959.91;4932747;29;20456;-70
2022/12/03 11:11:27;;;;;;;0.27;0.27;;;;;;;10.69;53.62;95945.41;4936035;29;20447;-64
2022/12/03 11:13:55;;;;;;;1.03;1.03;;;;;;;10.59;53.83;95950.44;4952012;28;20463;-65
2022/12/03 11:16:45;;;;;;;2.97;2.77;;;;;;;10.73;53.14;95938.69;4948921;28;20443;-67
2022/12/03 11:19:12;;;;;;;2.60;0.73;;;;;;;10.87;52.81;95947.91;4945993;29;20458;-66
2022/12/03 11:22:05;;;;;;;0.07;0.07;;;;;;;11.11;52.92;95949.41;4947492;28;20877;-65
2022/12/03 11:24:33;;;;;;;0.10;0.10;;;;;;;10.92;53.23;95955.88;4945070;29;20806;-67
2022/12/03 11:27:00;;;;;;;0.30;0.30;;;;;;;10.95;53.08;95955.41;4937196;28;20535;-67
2022/12/03 11:29:53;;;;;;;0.10;0.10;;;;;;;10.85;53.41;95954.41;4938180;28;20539;-66
2022/12/03 11:35:23;;;;;;;0.40;0.33;;;;;;;10.49;54.26;95944.97;4932282;29;20558;-65
2022/12/03 11:37:51;;;;;;;0.53;0.43;;;;;;;9.85;55.00;95947.66;4943138;28;20443;-66
2022/12/03 11:40:18;;;;;;;0.20;0.20;;;;;;;10.07;55.00;95940.84;4951296;28;20478;-65
2022/12/03 11:42:47;;;;;;;0.10;0.10;;;;;;;10.26;55.00;95936.31;4951653;28;20483;-64
2022/12/03 11:45:16;;;;;;;0.47;0.47;;;;;;;10.47;54.71;95939.19;4937822;28;20460;-67
2022/12/03 11:47:45;;;;;;;0.27;0.20;;;;;;;10.64;54.58;95937.44;4951113;28;20475;-64
2022/12/03 11:50:17;;;;;;;0.90;0.53;;;;;;;10.54;54.94;95933.81;4937962;28;20939;-65
2022/12/03 11:52:47;;;;;;;0.30;0.30;;;;;;;10.25;55.56;95932.91;4933313;28;21068;-67
2022/12/03 11:55:17;;;;;;;3.27;2.77;;;;;;;10.13;58.30;95935.53;4948459;28;20510;-60
2022/12/03 11:57:44;;;;;;;0.50;0.50;;;;;;;10.39;56.22;95933.47;4947411;28;20777;-63
2022/12/03 12:00:20;;;;;;;0.23;0.23;;;;;;;10.68;55.60;95928.09;4934473;29;21015;-64
2022/12/03 12:02:48;;;;;;;0.87;0.60;;;;;;;10.67;55.17;95926.50;4938740;28;20498;-67
2022/12/03 12:05:27;;;;;;;0.33;0.20;;;;;;;10.67;55.02;95934.38;4930078;29;20999;-64
2022/12/03 12:07:55;;;;;;;0.27;0.17;;;;;;;10.64;54.82;95926.94;4930993;28;20531;-68
2022/12/03 12:10:47;;;;;;;0.53;0.43;;;;;;;10.76;54.88;95929.56;4932156;29;20442;-63
2022/12/03 12:13:30;;;;;;;0.30;0.30;;;;;;;10.72;54.90;95924.00;4933290;28;20955;-64
2022/12/03 12:16:01;;;;;;;0.23;0.23;;;;;;;10.68;54.73;95922.03;4933060;29;20488;-62
2022/12/03 12:18:41;;;;;;;0.03;0.03;;;;;;;10.97;54.24;95934.97;4934357;28;20452;-64